sensor_id;sensor_type;location;lat;lon;timestamp;pressure;altitude;pressure_sealevel;temperature;humidity
21824;BME280;11074;48.596;9.238;2023-06-24T00:02:13;99091.75;;;20.18;66.33
21824;BME280;11074;48.596;9.238;2023-06-24T00:04:39;99075.72;;;20.40;66.80
21824;BME280;11074;48.596;9.238;2023-06-24T00:07:05;99077.03;;;20.43;66.04
21824;BME280;11074;48.596;9.238;2023-06-24T00:09:32;99082.16;;;20.44;65.87
21824;BME280;11074;48.596;9.238;2023-06-24T00:11:58;99075.19;;;20.20;66.06
21824;BME280;11074;48.596;9.238;2023-06-24T00:14:25;99081.91;;;20.04;65.95
21824;BME280;11074;48.596;9.238;2023-06-24T00:16:55;99084.72;;;19.93;66.51
21824;BME280;11074;48.596;9.238;2023-06-24T00:19:26;99090.75;;;19.90;66.50
21824;BME280;11074;48.596;9.238;2023-06-24T00:21:52;99097.19;;;19.94;65.94
21824;BME280;11074;48.596;9.238;2023-06-24T00:24:22;99096.13;;;19.95;66.47
21824;BME280;11074;48.596;9.238;2023-06-24T00:26:55;99101.25;;;19.97;66.48
21824;BME280;11074;48.596;9.238;2023-06-24T00:29:21;99094.84;;;20.12;66.45
21824;BME280;11074;48.596;9.238;2023-06-24T00:31:47;99093.13;;;20.16;66.86
21824;BME280;11074;48.596;9.238;2023-06-24T00:34:13;99101.34;;;20.11;66.89
21824;BME280;11074;48.596;9.238;2023-06-24T00:36:39;99097.94;;;20.00;67.51
21824;BME280;11074;48.596;9.238;2023-06-24T00:39:05;99098.91;;;19.90;67.97
21824;BME280;11074;48.596;9.238;2023-06-24T00:41:33;99097.25;;;19.89;68.18
21824;BME280;11074;48.596;9.238;2023-06-24T00:44:00;99094.09;;;19.82;68.45
21824;BME280;11074;48.596;9.238;2023-06-24T00:46:28;99090.97;;;19.70;67.77
21824;BME280;11074;48.596;9.238;2023-06-24T00:48:56;99088.00;;;19.67;67.42
21824;BME280;11074;48.596;9.238;2023-06-24T00:51:22;99093.56;;;19.57;68.45
21824;BME280;11074;48.596;9.238;2023-06-24T00:53:59;99093.91;;;19.50;68.24
21824;BME280;11074;48.596;9.238;2023-06-24T00:56:31;99096.44;;;19.42;68.26
21824;BME280;11074;48.596;9.238;2023-06-24T00:59:01;99096.22;;;19.33;68.49
21824;BME280;11074;48.596;9.238;2023-06-24T01:01:32;99092.72;;;19.27;69.25
21824;BME280;11074;48.596;9.238;2023-06-24T01:03:59;99096.94;;;19.44;69.00
21824;BME280;11074;48.596;9.238;2023-06-24T01:06:27;99101.13;;;19.31;68.58
21824;BME280;11074;48.596;9.238;2023-06-24T01:09:01;99097.97;;;19.19;69.40
21824;BME280;11074;48.596;9.238;2023-06-24T01:11:29;99099.88;;;19.18;69.27
21824;BME280;11074;48.596;9.238;2023-06-24T01:13:56;99093.91;;;19.16;69.23
21824;BME280;11074;48.596;9.238;2023-06-24T01:16:47;99090.94;;;19.18;69.50
21824;BME280;11074;48.596;9.238;2023-06-24T01:31:34;99089.19;;;19.32;70.23
21824;BME280;11074;48.596;9.238;2023-06-24T01:37:08;99086.78;;;19.25;69.21
21824;BME280;11074;48.596;9.238;2023-06-24T01:39:52;99088.84;;;19.10;69.33
21824;BME280;11074;48.596;9.238;2023-06-24T01:42:22;99090.53;;;19.01;69.73
21824;BME280;11074;48.596;9.238;2023-06-24T01:44:49;99090.00;;;18.99;69.77
21824;BME280;11074;48.596;9.238;2023-06-24T01:47:23;99086.03;;;18.91;70.46
21824;BME280;11074;48.596;9.238;2023-06-24T01:49:58;99087.41;;;18.89;70.39
21824;BME280;11074;48.596;9.238;2023-06-24T01:52:29;99080.09;;;18.89;70.71
21824;BME280;11074;48.596;9.238;2023-06-24T01:54:58;99080.13;;;18.84;70.68
21824;BME280;11074;48.596;9.238;2023-06-24T01:57:27;99087.19;;;18.80;70.52
21824;BME280;11074;48.596;9.238;2023-06-24T01:59:54;99094.22;;;18.81;70.68
21824;BME280;11074;48.596;9.238;2023-06-24T02:02:21;99090.66;;;18.86;70.72
21824;BME280;11074;48.596;9.238;2023-06-24T02:04:51;99086.09;;;18.81;70.35
21824;BME280;11074;48.596;9.238;2023-06-24T02:07:20;99089.44;;;18.68;70.54
21824;BME280;11074;48.596;9.238;2023-06-24T02:09:46;99088.34;;;18.69;70.52
21824;BME280;11074;48.596;9.238;2023-06-24T02:12:12;99086.78;;;18.58;70.79
21824;BME280;11074;48.596;9.238;2023-06-24T02:14:40;99077.72;;;18.77;71.23
21824;BME280;11074;48.596;9.238;2023-06-24T02:17:10;99081.97;;;18.89;70.35
21824;BME280;11074;48.596;9.238;2023-06-24T02:19:38;99076.59;;;18.84;70.13
21824;BME280;11074;48.596;9.238;2023-06-24T02:22:05;99075.66;;;18.64;70.64
21824;BME280;11074;48.596;9.238;2023-06-24T02:24:37;99082.78;;;18.45;70.95
21824;BME280;11074;48.596;9.238;2023-06-24T02:27:06;99074.97;;;18.44;71.41
21824;BME280;11074;48.596;9.238;2023-06-24T02:29:34;99075.22;;;18.47;70.83
21824;BME280;11074;48.596;9.238;2023-06-24T02:32:01;99070.63;;;18.48;71.09
21824;BME280;11074;48.596;9.238;2023-06-24T02:34:28;99076.00;;;18.53;71.01
21824;BME280;11074;48.596;9.238;2023-06-24T02:36:54;99077.63;;;18.54;70.80
21824;BME280;11074;48.596;9.238;2023-06-24T02:39:19;99074.19;;;18.77;70.86
21824;BME280;11074;48.596;9.238;2023-06-24T02:41:45;99084.69;;;18.89;70.62
21824;BME280;11074;48.596;9.238;2023-06-24T02:44:13;99072.78;;;18.85;69.86
21824;BME280;11074;48.596;9.238;2023-06-24T02:46:42;99084.41;;;18.51;70.78
21824;BME280;11074;48.596;9.238;2023-06-24T02:49:10;99083.59;;;18.51;70.98
21824;BME280;11074;48.596;9.238;2023-06-24T02:51:39;99086.78;;;18.58;70.75
21824;BME280;11074;48.596;9.238;2023-06-24T02:54:06;99076.25;;;18.56;70.70
21824;BME280;11074;48.596;9.238;2023-06-24T02:56:32;99067.19;;;18.71;71.06
21824;BME280;11074;48.596;9.238;2023-06-24T02:58:58;99078.59;;;18.73;71.16
21824;BME280;11074;48.596;9.238;2023-06-24T03:01:24;99069.50;;;18.54;70.89
21824;BME280;11074;48.596;9.238;2023-06-24T03:03:55;99072.78;;;18.46;71.45
21824;BME280;11074;48.596;9.238;2023-06-24T03:06:22;99077.16;;;18.37;72.05
21824;BME280;11074;48.596;9.238;2023-06-24T03:08:50;99076.06;;;18.38;71.61
21824;BME280;11074;48.596;9.238;2023-06-24T03:11:16;99078.47;;;18.49;71.54
21824;BME280;11074;48.596;9.238;2023-06-24T03:13:43;99080.50;;;18.67;71.96
21824;BME280;11074;48.596;9.238;2023-06-24T03:16:10;99088.84;;;18.76;72.10
21824;BME280;11074;48.596;9.238;2023-06-24T03:18:47;99095.34;;;18.75;71.65
21824;BME280;11074;48.596;9.238;2023-06-24T03:21:12;99094.66;;;18.59;71.33
21824;BME280;11074;48.596;9.238;2023-06-24T03:23:38;99101.88;;;18.69;71.71
21824;BME280;11074;48.596;9.238;2023-06-24T03:26:05;99104.16;;;18.57;71.40
21824;BME280;11074;48.596;9.238;2023-06-24T03:28:32;99105.81;;;18.43;71.87
21824;BME280;11074;48.596;9.238;2023-06-24T03:30:58;99100.38;;;18.53;71.95
21824;BME280;11074;48.596;9.238;2023-06-24T03:33:24;99107.69;;;18.57;72.28
21824;BME280;11074;48.596;9.238;2023-06-24T03:35:52;99113.91;;;18.53;72.41
21824;BME280;11074;48.596;9.238;2023-06-24T03:38:18;99107.94;;;18.56;72.18
21824;BME280;11074;48.596;9.238;2023-06-24T03:40:44;99118.69;;;18.66;72.28
21824;BME280;11074;48.596;9.238;2023-06-24T03:43:10;99123.59;;;18.64;71.72
21824;BME280;11074;48.596;9.238;2023-06-24T03:45:36;99117.38;;;18.63;72.02
21824;BME280;11074;48.596;9.238;2023-06-24T03:48:01;99113.84;;;18.68;71.84
21824;BME280;11074;48.596;9.238;2023-06-24T03:50:27;99118.97;;;18.69;71.88
21824;BME280;11074;48.596;9.238;2023-06-24T03:52:53;99121.97;;;18.68;71.86
21824;BME280;11074;48.596;9.238;2023-06-24T03:55:18;99125.22;;;18.65;71.65
21824;BME280;11074;48.596;9.238;2023-06-24T03:57:44;99130.09;;;18.68;71.91
21824;BME280;11074;48.596;9.238;2023-06-24T04:00:10;99126.56;;;18.67;71.92
21824;BME280;11074;48.596;9.238;2023-06-24T04:02:43;99134.94;;;18.66;72.23
21824;BME280;11074;48.596;9.238;2023-06-24T04:05:10;99134.44;;;18.64;72.24
21824;BME280;11074;48.596;9.238;2023-06-24T04:07:36;99139.41;;;18.52;72.98
21824;BME280;11074;48.596;9.238;2023-06-24T04:10:06;99145.34;;;18.54;72.99
21824;BME280;11074;48.596;9.238;2023-06-24T04:12:36;99150.22;;;18.52;72.98
21824;BME280;11074;48.596;9.238;2023-06-24T04:15:03;99156.19;;;18.44;73.34
21824;BME280;11074;48.596;9.238;2023-06-24T04:17:29;99156.19;;;18.44;73.29
21824;BME280;11074;48.596;9.238;2023-06-24T04:19:55;99158.91;;;18.49;73.83
21824;BME280;11074;48.596;9.238;2023-06-24T04:22:21;99163.50;;;18.43;73.91
21824;BME280;11074;48.596;9.238;2023-06-24T04:24:47;99158.63;;;18.45;73.89
21824;BME280;11074;48.596;9.238;2023-06-24T04:27:13;99166.72;;;18.45;73.72
21824;BME280;11074;48.596;9.238;2023-06-24T04:29:39;99161.09;;;18.37;74.27
21824;BME280;11074;48.596;9.238;2023-06-24T04:32:05;99157.91;;;18.25;74.45
21824;BME280;11074;48.596;9.238;2023-06-24T04:34:31;99160.59;;;18.25;74.56
21824;BME280;11074;48.596;9.238;2023-06-24T04:36:58;99164.34;;;18.34;74.63
21824;BME280;11074;48.596;9.238;2023-06-24T04:39:27;99162.44;;;18.39;74.21
21824;BME280;11074;48.596;9.238;2023-06-24T04:41:53;99160.78;;;18.48;74.24
21824;BME280;11074;48.596;9.238;2023-06-24T04:44:22;99167.59;;;18.36;74.25
21824;BME280;11074;48.596;9.238;2023-06-24T04:46:48;99164.03;;;18.45;74.24
21824;BME280;11074;48.596;9.238;2023-06-24T04:49:14;99167.03;;;18.49;74.09
21824;BME280;11074;48.596;9.238;2023-06-24T04:51:41;99163.47;;;18.53;73.93
21824;BME280;11074;48.596;9.238;2023-06-24T04:54:07;99163.19;;;18.60;73.75
21824;BME280;11074;48.596;9.238;2023-06-24T04:56:34;99172.88;;;18.66;73.79
21824;BME280;11074;48.596;9.238;2023-06-24T04:59:03;99164.75;;;18.66;73.75
21824;BME280;11074;48.596;9.238;2023-06-24T05:01:31;99166.09;;;18.68;74.06
21824;BME280;11074;48.596;9.238;2023-06-24T05:04:00;99162.00;;;18.71;73.62
21824;BME280;11074;48.596;9.238;2023-06-24T05:06:26;99166.88;;;18.74;73.74
21824;BME280;11074;48.596;9.238;2023-06-24T05:08:52;99166.31;;;18.77;73.98
21824;BME280;11074;48.596;9.238;2023-06-24T05:11:21;99163.88;;;18.81;74.15
21824;BME280;11074;48.596;9.238;2023-06-24T05:13:50;99165.75;;;18.80;73.78
21824;BME280;11074;48.596;9.238;2023-06-24T05:16:18;99168.22;;;18.76;73.96
21824;BME280;11074;48.596;9.238;2023-06-24T05:18:45;99164.97;;;18.74;73.96
21824;BME280;11074;48.596;9.238;2023-06-24T05:21:11;99169.31;;;18.75;73.59
21824;BME280;11074;48.596;9.238;2023-06-24T05:23:37;99165.50;;;18.76;73.63
21824;BME280;11074;48.596;9.238;2023-06-24T05:26:08;99171.72;;;18.77;74.09
21824;BME280;11074;48.596;9.238;2023-06-24T05:28:36;99162.59;;;18.68;73.81
21824;BME280;11074;48.596;9.238;2023-06-24T05:31:02;99173.66;;;18.71;74.44
21824;BME280;11074;48.596;9.238;2023-06-24T05:33:28;99177.72;;;18.74;74.41
21824;BME280;11074;48.596;9.238;2023-06-24T05:35:54;99176.38;;;18.71;74.57
21824;BME280;11074;48.596;9.238;2023-06-24T05:38:23;99180.16;;;18.75;74.53
21824;BME280;11074;48.596;9.238;2023-06-24T05:40:50;99179.81;;;18.82;74.29
21824;BME280;11074;48.596;9.238;2023-06-24T05:43:16;99175.75;;;18.85;74.70
21824;BME280;11074;48.596;9.238;2023-06-24T05:45:42;99168.13;;;18.92;74.14
21824;BME280;11074;48.596;9.238;2023-06-24T05:48:12;99169.72;;;18.93;73.94
21824;BME280;11074;48.596;9.238;2023-06-24T05:50:44;99168.66;;;18.94;73.92
21824;BME280;11074;48.596;9.238;2023-06-24T05:53:13;99170.28;;;18.95;74.20
21824;BME280;11074;48.596;9.238;2023-06-24T05:55:39;99168.91;;;18.97;73.90
21824;BME280;11074;48.596;9.238;2023-06-24T05:58:07;99176.19;;;19.02;74.65
21824;BME280;11074;48.596;9.238;2023-06-24T06:00:36;99171.53;;;19.07;74.29
21824;BME280;11074;48.596;9.238;2023-06-24T06:03:03;99165.78;;;19.14;73.87
21824;BME280;11074;48.596;9.238;2023-06-24T06:05:29;99174.16;;;19.17;73.78
21824;BME280;11074;48.596;9.238;2023-06-24T06:07:55;99166.00;;;19.22;74.03
21824;BME280;11074;48.596;9.238;2023-06-24T06:10:21;99167.06;;;19.26;73.66
21824;BME280;11074;48.596;9.238;2023-06-24T06:12:47;99165.13;;;19.27;73.70
21824;BME280;11074;48.596;9.238;2023-06-24T06:15:13;99167.56;;;19.28;73.48
21824;BME280;11074;48.596;9.238;2023-06-24T06:17:44;99164.31;;;19.31;73.95
21824;BME280;11074;48.596;9.238;2023-06-24T06:20:11;99157.78;;;19.32;74.00
21824;BME280;11074;48.596;9.238;2023-06-24T06:22:40;99154.28;;;19.32;74.45
21824;BME280;11074;48.596;9.238;2023-06-24T06:25:07;99156.94;;;19.37;74.00
21824;BME280;11074;48.596;9.238;2023-06-24T06:27:34;99159.06;;;19.45;73.76
21824;BME280;11074;48.596;9.238;2023-06-24T06:30:03;99150.06;;;19.50;74.32
21824;BME280;11074;48.596;9.238;2023-06-24T06:32:31;99148.38;;;19.54;73.75
21824;BME280;11074;48.596;9.238;2023-06-24T06:35:04;99140.78;;;19.56;73.35
21824;BME280;11074;48.596;9.238;2023-06-24T06:37:30;99148.06;;;19.60;73.25
21824;BME280;11074;48.596;9.238;2023-06-24T06:40:03;99139.88;;;19.65;73.61
21824;BME280;11074;48.596;9.238;2023-06-24T06:42:35;99146.09;;;19.66;72.98
21824;BME280;11074;48.596;9.238;2023-06-24T06:45:01;99147.94;;;19.70;73.41
21824;BME280;11074;48.596;9.238;2023-06-24T06:47:28;99146.56;;;19.73;72.91
21824;BME280;11074;48.596;9.238;2023-06-24T06:49:55;99140.56;;;19.76;72.61
21824;BME280;11074;48.596;9.238;2023-06-24T06:52:21;99139.47;;;19.77;72.56
21824;BME280;11074;48.596;9.238;2023-06-24T06:54:47;99139.69;;;19.80;72.58
21824;BME280;11074;48.596;9.238;2023-06-24T06:57:13;99143.53;;;19.79;72.42
21824;BME280;11074;48.596;9.238;2023-06-24T06:59:39;99139.44;;;19.82;72.23
21824;BME280;11074;48.596;9.238;2023-06-24T07:02:06;99143.47;;;19.84;72.67
21824;BME280;11074;48.596;9.238;2023-06-24T07:04:32;99136.09;;;19.90;71.22
21824;BME280;11074;48.596;9.238;2023-06-24T07:06:58;99136.59;;;19.92;71.45
21824;BME280;11074;48.596;9.238;2023-06-24T07:09:24;99137.63;;;19.96;71.39
21824;BME280;11074;48.596;9.238;2023-06-24T07:11:56;99138.69;;;20.00;71.14
21824;BME280;11074;48.596;9.238;2023-06-24T07:14:22;99136.47;;;20.02;71.45
21824;BME280;11074;48.596;9.238;2023-06-24T07:16:48;99133.19;;;20.05;70.78
21824;BME280;11074;48.596;9.238;2023-06-24T07:19:15;99134.22;;;20.09;71.45
21824;BME280;11074;48.596;9.238;2023-06-24T07:21:40;99141.78;;;20.12;71.13
21824;BME280;11074;48.596;9.238;2023-06-24T07:24:06;99122.19;;;20.15;71.83
21824;BME280;11074;48.596;9.238;2023-06-24T07:26:32;99128.66;;;20.19;70.99
21824;BME280;11074;48.596;9.238;2023-06-24T07:28:58;99132.41;;;20.23;70.29
21824;BME280;11074;48.596;9.238;2023-06-24T07:31:24;99128.88;;;20.28;69.40
21824;BME280;11074;48.596;9.238;2023-06-24T07:33:49;99131.28;;;20.29;69.08
21824;BME280;11074;48.596;9.238;2023-06-24T07:36:15;99129.88;;;20.32;66.83
21824;BME280;11074;48.596;9.238;2023-06-24T07:38:41;99126.59;;;20.35;66.42
21824;BME280;11074;48.596;9.238;2023-06-24T07:41:07;99130.31;;;20.39;66.01
21824;BME280;11074;48.596;9.238;2023-06-24T07:43:33;99125.44;;;20.41;65.72
21824;BME280;11074;48.596;9.238;2023-06-24T07:45:59;99132.69;;;20.45;64.62
21824;BME280;11074;48.596;9.238;2023-06-24T07:48:24;99132.03;;;20.53;63.92
21824;BME280;11074;48.596;9.238;2023-06-24T07:50:50;99130.88;;;20.60;64.40
21824;BME280;11074;48.596;9.238;2023-06-24T07:53:16;99121.53;;;20.66;64.29
21824;BME280;11074;48.596;9.238;2023-06-24T07:55:41;99124.47;;;20.69;64.08
21824;BME280;11074;48.596;9.238;2023-06-24T07:58:07;99123.31;;;20.75;63.74
21824;BME280;11074;48.596;9.238;2023-06-24T08:00:33;99120.06;;;20.73;63.86
21824;BME280;11074;48.596;9.238;2023-06-24T08:02:59;99121.69;;;20.74;63.46
21824;BME280;11074;48.596;9.238;2023-06-24T08:05:25;99120.78;;;20.79;63.61
21824;BME280;11074;48.596;9.238;2023-06-24T08:07:52;99113.94;;;20.81;62.93
21824;BME280;11074;48.596;9.238;2023-06-24T08:10:20;99116.63;;;20.86;62.99
21824;BME280;11074;48.596;9.238;2023-06-24T08:12:46;99120.66;;;20.89;62.69
21824;BME280;11074;48.596;9.238;2023-06-24T08:15:13;99113.50;;;20.93;61.71
21824;BME280;11074;48.596;9.238;2023-06-24T08:17:39;99110.44;;;20.99;60.96
21824;BME280;11074;48.596;9.238;2023-06-24T08:20:05;99114.97;;;21.04;59.72
21824;BME280;11074;48.596;9.238;2023-06-24T08:22:31;99111.69;;;21.07;59.29
21824;BME280;11074;48.596;9.238;2023-06-24T08:24:57;99108.88;;;21.12;59.00
21824;BME280;11074;48.596;9.238;2023-06-24T08:27:23;99107.69;;;21.18;58.08
21824;BME280;11074;48.596;9.238;2023-06-24T08:29:49;99104.38;;;21.21;58.17
21824;BME280;11074;48.596;9.238;2023-06-24T08:32:14;99097.25;;;21.25;58.06
21824;BME280;11074;48.596;9.238;2023-06-24T08:34:40;99105.53;;;21.34;57.31
21824;BME280;11074;48.596;9.238;2023-06-24T08:37:06;99104.63;;;21.38;57.32
21824;BME280;11074;48.596;9.238;2023-06-24T08:39:31;99100.41;;;21.46;58.30
21824;BME280;11074;48.596;9.238;2023-06-24T08:41:57;99101.94;;;21.52;57.97
21824;BME280;11074;48.596;9.238;2023-06-24T08:44:23;99104.44;;;21.62;58.32
21824;BME280;11074;48.596;9.238;2023-06-24T08:46:48;99093.78;;;21.65;58.25
21824;BME280;11074;48.596;9.238;2023-06-24T08:49:39;99097.13;;;21.76;57.98
21824;BME280;11074;48.596;9.238;2023-06-24T08:52:15;99084.22;;;21.82;57.78
21824;BME280;11074;48.596;9.238;2023-06-24T08:54:47;99085.72;;;21.88;57.63
21824;BME280;11074;48.596;9.238;2023-06-24T08:57:14;99086.03;;;21.86;56.45
21824;BME280;11074;48.596;9.238;2023-06-24T08:59:41;99086.53;;;21.88;56.83
21824;BME280;11074;48.596;9.238;2023-06-24T09:02:07;99083.22;;;21.91;56.67
21824;BME280;11074;48.596;9.238;2023-06-24T09:04:34;99093.19;;;21.96;55.21
21824;BME280;11074;48.596;9.238;2023-06-24T09:07:00;99085.22;;;21.99;54.57
21824;BME280;11074;48.596;9.238;2023-06-24T09:09:26;99076.66;;;22.06;54.85
21824;BME280;11074;48.596;9.238;2023-06-24T09:11:56;99082.19;;;22.14;55.23
21824;BME280;11074;48.596;9.238;2023-06-24T09:14:28;99078.75;;;22.22;55.12
21824;BME280;11074;48.596;9.238;2023-06-24T09:16:57;99080.25;;;22.28;54.92
21824;BME280;11074;48.596;9.238;2023-06-24T09:19:25;99085.78;;;22.37;54.85
21824;BME280;11074;48.596;9.238;2023-06-24T09:21:55;99070.41;;;22.41;54.31
21824;BME280;11074;48.596;9.238;2023-06-24T09:24:21;99073.34;;;22.45;52.87
21824;BME280;11074;48.596;9.238;2023-06-24T09:26:47;99061.84;;;22.48;52.28
21824;BME280;11074;48.596;9.238;2023-06-24T09:29:14;99062.72;;;22.57;53.50
21824;BME280;11074;48.596;9.238;2023-06-24T09:31:49;99057.09;;;22.53;53.11
21824;BME280;11074;48.596;9.238;2023-06-24T09:34:16;99057.09;;;22.53;51.88
21824;BME280;11074;48.596;9.238;2023-06-24T09:36:51;99055.66;;;22.56;52.08
21824;BME280;11074;48.596;9.238;2023-06-24T09:39:17;99046.88;;;22.59;51.37
21824;BME280;11074;48.596;9.238;2023-06-24T09:41:43;99051.09;;;22.65;52.50
21824;BME280;11074;48.596;9.238;2023-06-24T09:44:16;99047.94;;;22.71;51.49
21824;BME280;11074;48.596;9.238;2023-06-24T09:46:43;99048.81;;;22.80;51.20
21824;BME280;11074;48.596;9.238;2023-06-24T09:49:09;99037.19;;;22.88;50.70
21824;BME280;11074;48.596;9.238;2023-06-24T09:51:39;99042.97;;;22.96;50.75
21824;BME280;11074;48.596;9.238;2023-06-24T09:54:06;99038.34;;;22.96;51.31
21824;BME280;11074;48.596;9.238;2023-06-24T09:56:36;99035.78;;;23.00;50.30
21824;BME280;11074;48.596;9.238;2023-06-24T09:59:06;99031.00;;;23.05;50.04
21824;BME280;11074;48.596;9.238;2023-06-24T10:01:44;99030.25;;;23.13;50.31
21824;BME280;11074;48.596;9.238;2023-06-24T10:04:16;99028.50;;;23.17;48.40
21824;BME280;11074;48.596;9.238;2023-06-24T10:06:42;99021.31;;;23.21;48.82
21824;BME280;11074;48.596;9.238;2023-06-24T10:09:08;99021.53;;;23.33;48.15
21824;BME280;11074;48.596;9.238;2023-06-24T10:11:34;99011.81;;;23.41;47.88
21824;BME280;11074;48.596;9.238;2023-06-24T10:14:00;99012.13;;;23.48;47.16
21824;BME280;11074;48.596;9.238;2023-06-24T10:16:26;99009.63;;;23.60;47.55
21824;BME280;11074;48.596;9.238;2023-06-24T10:18:59;99013.69;;;23.71;46.12
21824;BME280;11074;48.596;9.238;2023-06-24T10:21:54;99012.41;;;23.77;45.99
21824;BME280;11074;48.596;9.238;2023-06-24T10:24:37;99010.66;;;23.81;45.53
21824;BME280;11074;48.596;9.238;2023-06-24T10:27:08;99011.63;;;23.85;46.05
21824;BME280;11074;48.596;9.238;2023-06-24T10:29:38;99002.47;;;23.81;45.57
21824;BME280;11074;48.596;9.238;2023-06-24T10:32:05;99000.22;;;23.83;45.25
21824;BME280;11074;48.596;9.238;2023-06-24T10:34:44;98996.03;;;23.86;42.33
21824;BME280;11074;48.596;9.238;2023-06-24T10:37:21;98996.34;;;23.93;43.25
21824;BME280;11074;48.596;9.238;2023-06-24T10:39:57;98995.41;;;24.06;43.26
21824;BME280;11074;48.596;9.238;2023-06-24T10:42:36;98993.06;;;24.22;43.38
21824;BME280;11074;48.596;9.238;2023-06-24T10:47:40;98981.81;;;24.32;43.26
21824;BME280;11074;48.596;9.238;2023-06-24T10:50:09;98977.63;;;24.43;43.55
21824;BME280;11074;48.596;9.238;2023-06-24T10:52:41;98977.78;;;24.46;42.61
21824;BME280;11074;48.596;9.238;2023-06-24T10:55:08;98978.41;;;24.52;42.29
21824;BME280;11074;48.596;9.238;2023-06-24T10:57:34;98964.91;;;24.47;41.89
21824;BME280;11074;48.596;9.238;2023-06-24T11:00:02;98959.44;;;24.47;41.93
21824;BME280;11074;48.596;9.238;2023-06-24T11:02:29;98960.91;;;24.44;42.39
21824;BME280;11074;48.596;9.238;2023-06-24T11:05:00;98956.53;;;24.52;42.31
21824;BME280;11074;48.596;9.238;2023-06-24T11:07:37;98955.25;;;24.66;42.79
21824;BME280;11074;48.596;9.238;2023-06-24T11:10:16;98955.06;;;24.71;42.58
21824;BME280;11074;48.596;9.238;2023-06-24T11:12:43;98944.75;;;24.77;41.78
21824;BME280;11074;48.596;9.238;2023-06-24T11:15:11;98945.06;;;24.93;41.99
21824;BME280;11074;48.596;9.238;2023-06-24T11:17:38;98944.34;;;25.13;42.63
21824;BME280;11074;48.596;9.238;2023-06-24T11:20:13;98947.28;;;25.37;41.40
21824;BME280;11074;48.596;9.238;2023-06-24T11:22:43;98946.44;;;25.54;41.29
21824;BME280;11074;48.596;9.238;2023-06-24T11:25:20;98947.63;;;25.73;39.29
21824;BME280;11074;48.596;9.238;2023-06-24T11:27:47;98939.31;;;25.82;38.08
21824;BME280;11074;48.596;9.238;2023-06-24T11:30:16;98940.63;;;26.05;37.67
21824;BME280;11074;48.596;9.238;2023-06-24T11:32:44;98935.47;;;26.24;38.67
21824;BME280;11074;48.596;9.238;2023-06-24T11:35:12;98939.41;;;26.35;38.16
21824;BME280;11074;48.596;9.238;2023-06-24T11:37:43;98932.97;;;26.52;37.88
21824;BME280;11074;48.596;9.238;2023-06-24T11:40:10;98925.91;;;26.63;36.14
21824;BME280;11074;48.596;9.238;2023-06-24T11:42:38;98930.56;;;26.51;36.16
21824;BME280;11074;48.596;9.238;2023-06-24T11:45:07;98909.63;;;26.46;35.97
21824;BME280;11074;48.596;9.238;2023-06-24T11:47:35;98906.13;;;26.58;36.24
21824;BME280;11074;48.596;9.238;2023-06-24T11:50:04;98908.88;;;26.70;36.20
21824;BME280;11074;48.596;9.238;2023-06-24T11:55:02;98905.75;;;26.92;36.29
21824;BME280;11074;48.596;9.238;2023-06-24T12:00:28;98893.69;;;27.17;36.07
21824;BME280;11074;48.596;9.238;2023-06-24T12:02:58;98891.81;;;26.97;34.20
21824;BME280;11074;48.596;9.238;2023-06-24T12:07:59;98877.06;;;27.01;34.34
21824;BME280;11074;48.596;9.238;2023-06-24T12:10:25;98873.97;;;27.15;34.94
21824;BME280;11074;48.596;9.238;2023-06-24T12:12:52;98878.34;;;27.40;34.79
21824;BME280;11074;48.596;9.238;2023-06-24T12:15:18;98870.06;;;27.64;34.43
21824;BME280;11074;48.596;9.238;2023-06-24T12:17:44;98871.16;;;27.88;33.87
21824;BME280;11074;48.596;9.238;2023-06-24T12:20:10;98866.78;;;27.99;32.66
21824;BME280;11074;48.596;9.238;2023-06-24T12:22:36;98858.28;;;28.04;32.21
21824;BME280;11074;48.596;9.238;2023-06-24T12:25:03;98853.47;;;28.13;32.14
21824;BME280;11074;48.596;9.238;2023-06-24T12:27:29;98857.53;;;28.19;33.22
21824;BME280;11074;48.596;9.238;2023-06-24T12:29:54;98855.03;;;28.14;32.42
21824;BME280;11074;48.596;9.238;2023-06-24T12:32:20;98852.06;;;28.35;32.14
21824;BME280;11074;48.596;9.238;2023-06-24T12:34:46;98849.81;;;28.52;30.02
21824;BME280;11074;48.596;9.238;2023-06-24T12:37:11;98839.25;;;28.54;30.95
21824;BME280;11074;48.596;9.238;2023-06-24T12:39:37;98843.81;;;28.78;29.76
21824;BME280;11074;48.596;9.238;2023-06-24T12:42:03;98831.28;;;28.80;30.28
21824;BME280;11074;48.596;9.238;2023-06-24T12:44:29;98839.91;;;28.95;30.10
21824;BME280;11074;48.596;9.238;2023-06-24T12:46:54;98836.25;;;28.91;29.75
21824;BME280;11074;48.596;9.238;2023-06-24T12:49:20;98837.22;;;29.14;30.48
21824;BME280;11074;48.596;9.238;2023-06-24T12:51:46;98833.28;;;29.30;30.55
21824;BME280;11074;48.596;9.238;2023-06-24T12:54:11;98838.28;;;29.40;29.20
21824;BME280;11074;48.596;9.238;2023-06-24T12:56:37;98838.69;;;29.42;29.48
21824;BME280;11074;48.596;9.238;2023-06-24T12:59:03;98828.53;;;29.47;29.59
21824;BME280;11074;48.596;9.238;2023-06-24T13:01:28;98836.75;;;29.62;28.92
21824;BME280;11074;48.596;9.238;2023-06-24T13:03:54;98824.50;;;29.60;29.14
21824;BME280;11074;48.596;9.238;2023-06-24T13:06:20;98822.63;;;29.64;28.62
21824;BME280;11074;48.596;9.238;2023-06-24T13:08:45;98817.13;;;29.64;29.20
21824;BME280;11074;48.596;9.238;2023-06-24T13:11:11;98807.75;;;29.68;29.44
21824;BME280;11074;48.596;9.238;2023-06-24T13:13:37;98802.97;;;29.65;29.91
21824;BME280;11074;48.596;9.238;2023-06-24T13:16:02;98798.69;;;29.68;30.32
21824;BME280;11074;48.596;9.238;2023-06-24T13:18:28;98793.03;;;29.61;30.48
21824;BME280;11074;48.596;9.238;2023-06-24T13:20:53;98799.34;;;29.61;29.91
21824;BME280;11074;48.596;9.238;2023-06-24T13:23:19;98802.19;;;29.65;30.09
21824;BME280;11074;48.596;9.238;2023-06-24T13:25:45;98804.25;;;29.52;28.72
21824;BME280;11074;48.596;9.238;2023-06-24T13:28:10;98799.25;;;29.58;28.96
21824;BME280;11074;48.596;9.238;2023-06-24T13:30:36;98788.09;;;29.70;29.42